Flight Track Log - Related Links

Times and Time Zones

All times are in EDT time to prevent confusion due to time zone crossing. See the ASQ6151 flight status page for this flight to view local times or setup timezone preferences in your user account.

Time Position Orientation Groundspeed Altitude Reporting Facility
EDT Latitude Longitude Course Direction KTS MPH feet Rate Location/Type
Sat 05:49:32 AM 39.1833 -76.7000 270° West 171 197 1,700  Level Potomac TRACON
Sat 05:50:26 AM 39.1833 -76.7833 270° West 223 257 3,100 2,000 Climbing Potomac TRACON
Sat 05:51:26 AM 39.2000 -76.8667 284° West 248 285 5,500 2,400 Climbing Potomac TRACON
Sat 05:52:26 AM 39.2167 -76.9500 284° West 258 297 7,900 2,350 Climbing Potomac TRACON
Sat 05:53:26 AM 39.2000 -77.0500 258° West 261 300 10,200 1,698 Climbing Potomac TRACON
Sat 05:55:51 AM 39.1475 -77.2883 254° West 297 342 13,700 1,340 Climbing Washington Center
Sat 05:56:52 AM 39.1294 -77.3736 255° West 303 349 14,800 1,339 Climbing Washington Center
Sat 05:57:52 AM 39.1044 -77.5094 257° West 317 365 16,400 1,537 Climbing Washington Center
Sat 05:58:53 AM 39.0819 -77.6211 255° West 322 371 17,900 1,550 Climbing Washington Center
Sat 05:59:52 AM 39.0592 -77.7300 255° West 317 365 19,500 1,613 Climbing Washington Center
Sat 06:00:52 AM 39.0383 -77.8392 256° West 317 365 21,100 1,623 Climbing Washington Center
Sat 06:01:54 AM 39.0175 -77.9506 256° West 317 365 22,800 1,361 Climbing Washington Center
Sat 06:02:51 AM 38.9922 -78.0594 253° West 317 365 23,800 1,271 Climbing Washington Center
Sat 06:03:52 AM 38.9692 -78.1708 255° West 317 365 25,300 1,550 Climbing Washington Center
Sat 06:04:51 AM 38.9603 -78.2853 264° West 317 365 26,900 1,361 Climbing Washington Center
Sat 06:05:51 AM 38.9661 -78.4003 274° West 317 365 28,000 1,041 Climbing Washington Center
Sat 06:06:52 AM 38.9692 -78.5286 272° West 338 389 29,000 1,000 Climbing Washington Center
Sat 06:07:51 AM 38.9725 -78.6542 272° West 350 403 30,000 1,000 Climbing Washington Center
Sat 06:08:52 AM 38.9753 -78.7850 272° West 368 423 31,000 992 Climbing Washington Center
Sat 06:09:52 AM 38.9800 -78.9189 273° West 368 423 32,000 1,008 Climbing Washington Center
Sat 06:10:51 AM 38.9847 -79.0500 273° West 373 429 33,000 1,008 Climbing Washington Center
Sat 06:11:51 AM 38.9889 -79.1917 272° West 383 441 34,000 992 Climbing Washington Center
Sat 06:12:52 AM 38.9908 -79.3333 271° West 389 448 35,000 950 Climbing Washington Center
Sat 06:13:51 AM 38.9947 -79.4725 272° West 395 455 35,900 500 Climbing Washington Center
Sat 06:14:52 AM 39.0000 -79.6222 273° West 395 455 36,000 50 Climbing Washington Center
Sat 06:15:52 AM 39.0033 -79.7719 272° West 421 484 36,000  Level Washington Center
Sat 06:16:53 AM 39.0047 -79.9139 271° West 421 484 36,000  Level Washington Center
Sat 06:17:42 AM 39.0031 -80.0111 269° West 402 463 36,000  Level Indianapolis Center
Sat 06:18:43 AM 39.0061 -80.1581 272° West 393 452 36,000  Level Indianapolis Center
Sat 06:19:43 AM 39.0069 -80.2981 270° West 393 452 36,000  Level Indianapolis Center
Sat 06:20:44 AM 39.0086 -80.4397 271° West 396 456 36,000  Level Indianapolis Center
Sat 06:21:44 AM 39.0119 -80.5822 272° West 399 459 36,000  Level Indianapolis Center
Sat 06:22:44 AM 39.0133 -80.7247 271° West 400 460 36,000  Level Indianapolis Center
Sat 06:23:45 AM 39.0344 -80.8644 281° West 408 470 36,000  Level Indianapolis Center
Sat 06:24:45 AM 39.0889 -80.9961 298° West 417 480 36,000  Level Indianapolis Center
Sat 06:25:46 AM 39.1447 -81.1272 299° West 420 483 36,000  Level Indianapolis Center
Sat 06:26:46 AM 39.1983 -81.2600 298° West 421 484 36,000  Level Indianapolis Center
Sat 06:27:47 AM 39.2525 -81.3917 298° West 419 482 36,000  Level Indianapolis Center
Sat 06:28:47 AM 39.3064 -81.5236 298° West 418 481 36,000  Level Indianapolis Center
Sat 06:29:48 AM 39.3722 -81.6853 298° West 424 488 36,000  Level Indianapolis Center
Sat 06:30:48 AM 39.4281 -81.8256 297° West 438 504 36,000  Level Indianapolis Center
Sat 06:31:49 AM 39.4842 -81.9650 298° West 438 504 36,000  Level Indianapolis Center
Sat 06:32:49 AM 39.5389 -82.1025 297° West 432 497 36,000  Level Indianapolis Center
Sat 06:33:50 AM 39.5933 -82.2406 297° West 426 490 36,000  Level Indianapolis Center
Sat 06:34:50 AM 39.6486 -82.3783 298° West 428 493 36,000  Level Indianapolis Center
Sat 06:35:51 AM 39.7025 -82.5167 297° West 426 490 36,000  Level Indianapolis Center
Sat 06:36:51 AM 39.7575 -82.6542 298° West 427 491 36,000  Level Indianapolis Center
Sat 06:37:52 AM 39.8119 -82.7933 297° West 429 494 36,000  Level Indianapolis Center
Sat 06:38:52 AM 39.8661 -82.9325 297° West 428 493 36,000  Level Indianapolis Center
Sat 06:39:53 AM 39.9200 -83.0714 297° West 429 494 36,000  Level Indianapolis Center
Sat 06:40:53 AM 39.9775 -83.2089 299° West 431 496 36,000  Level Indianapolis Center
Sat 06:41:54 AM 40.0475 -83.3397 305° West 441 507 36,000  Level Indianapolis Center
Sat 06:42:54 AM 40.1153 -83.4722 304° West 441 507 36,000  Level Indianapolis Center
Sat 06:43:55 AM 40.1839 -83.6050 304° West 441 507 36,000  Level Indianapolis Center
Sat 06:44:55 AM 40.2508 -83.7369 304° West 436 502 36,000 -198 Level Indianapolis Center
Sat 06:45:56 AM 40.3197 -83.8700 304° West 437 503 35,600 -694 Descending Indianapolis Center
Sat 06:46:56 AM 40.3886 -84.0056 304° West 442 509 34,600 -793 Descending Indianapolis Center
Sat 06:47:57 AM 40.4581 -84.1422 304° West 446 513 34,000 -295 Descending Indianapolis Center
Sat 06:48:58 AM 40.5286 -84.2814 304° West 454 522 34,000  Level Indianapolis Center
Sat 06:49:58 AM 40.5997 -84.4222 304° West 458 527 34,000  Level Indianapolis Center
Sat 06:50:59 AM 40.6703 -84.5631 303° West 457 526 34,000  Level Indianapolis Center
Sat 06:51:59 AM 40.7414 -84.7033 304° West 456 525 34,000  Level Indianapolis Center
Sat 06:53:00 AM 40.8117 -84.8444 303° West 457 526 34,000 -700 Level Indianapolis Center
Sat 06:53:59 AM 40.8711 -84.9811 300° West 451 519 32,600 -1,765 Descending Chicago Center
Sat 06:54:59 AM 40.9128 -85.1211 292° West 417 480 30,500 -1,300 Descending Chicago Center
Sat 06:55:59 AM 40.9544 -85.2586 292° West 405 466 30,000 -248 Descending Chicago Center
Sat 06:57:00 AM 40.9975 -85.3994 292° West 411 473 30,000 -694 Level Chicago Center
Sat 06:58:00 AM 41.0419 -85.5464 292° West 424 488 28,600 -1,686 Descending Chicago Center
Sat 06:59:01 AM 41.0886 -85.7033 292° West 452 520 26,600 -1,934 Descending Chicago Center
Sat 07:00:01 AM 41.1397 -85.8636 293° West 466 536 24,700 -1,934 Descending Chicago Center
Sat 07:01:02 AM 41.1900 -86.0128 294° West 451 519 22,700 -1,983 Descending Chicago Center
Sat 07:02:02 AM 41.2369 -86.1586 293° West 430 495 20,700 -1,835 Descending Chicago Center
Sat 07:03:03 AM 41.2828 -86.3003 293° West 419 482 19,000 -843 Descending Chicago Center
Sat 07:04:03 AM 41.3267 -86.4369 293° West 405 466 19,000 -645 Level Chicago Center
Sat 07:05:04 AM 41.3697 -86.5725 293° West 399 459 17,700 -1,180 Descending Chicago Center
Sat 07:06:05 AM 41.4119 -86.7058 293° West 393 452 16,600 -1,140 Descending Chicago Center
Sat 07:07:05 AM 41.4572 -86.8464 293° West 404 465 15,400 -1,289 Descending Chicago Center
Sat 07:08:06 AM 41.4989 -86.9797 293° West 397 457 14,000 -1,388 Descending Chicago Center
Sat 07:09:06 AM 41.5400 -87.1089 293° West 386 444 12,600 -992 Descending Chicago Center
Sat 07:10:07 AM 41.5797 -87.2347 293° West 377 434 12,000 -984 Descending Chicago Center
Sat 07:11:08 AM 41.6425 -87.3436 308° West 372 428 10,600 -992 Descending Chicago Center
Sat 07:12:08 AM 41.7172 -87.4683 309° West 365 420 10,000 -347 Descending Chicago Center
Sat 07:13:09 AM 41.7797 -87.5708 309° West 359 413 9,900 -590 Descending Chicago Center
Sat 07:14:10 AM 41.8303 -87.6539 309° West 296 341 8,800 -1,377 Descending Chicago Center
Sat 07:15:11 AM 41.8928 -87.7000 331° Northwest 291 335 7,100 -942 Descending Chicago Center
Sat 07:16:11 AM 41.9656 -87.7044 357° North 267 307 6,900 -843 Descending Chicago Center
Sat 07:17:12 AM 42.0344 -87.7081 358° North 252 290 5,400 -1,525 Descending Chicago Center
Sat 07:18:13 AM 42.0956 -87.7256 348° North 253 291 3,800 -1,426 Descending Chicago Center
Sat 07:19:14 AM 42.0892 -87.7978 263° West 219 252 2,500 -885 Descending Chicago Center
Sat 07:20:15 AM 42.0494 -87.8428 220° Southwest 209 241 2,000 -655 Descending Chicago Center
Sat 07:21:13 AM 42.0167 -87.8833 223° Southwest 130 150 1,200 -828 Descending Chicago TRACON
Sat 07:23:00 AM 41.9817 -87.9067 217° Southwest  Level Estimated

Login

Don't have an account? Register now (free) for customized features, flight alerts, and more!